sensor_id;sensor_type;location;lat;lon;timestamp;pressure;altitude;pressure_sealevel;temperature;humidity
31403;BME280;18039;52.188;21.024;2022-12-07T00:01:35;77192.97;;;-141.45;100.00
31403;BME280;18039;52.188;21.024;2022-12-07T00:04:03;77188.91;;;-141.45;100.00
31403;BME280;18039;52.188;21.024;2022-12-07T00:06:34;77180.81;;;-141.45;100.00
31403;BME280;18039;52.188;21.024;2022-12-07T00:09:03;77180.81;;;-141.45;100.00
31403;BME280;18039;52.188;21.024;2022-12-07T00:11:31;77174.72;;;-141.45;100.00
31403;BME280;18039;52.188;21.024;2022-12-07T00:14:00;77162.56;;;-141.45;100.00
31403;BME280;18039;52.188;21.024;2022-12-07T00:16:30;77158.50;;;-141.45;100.00
31403;BME280;18039;52.188;21.024;2022-12-07T00:18:57;77160.53;;;-141.45;100.00
31403;BME280;18039;52.188;21.024;2022-12-07T00:21:27;77160.53;;;-141.45;100.00
31403;BME280;18039;52.188;21.024;2022-12-07T00:23:55;77156.47;;;-141.45;100.00
31403;BME280;18039;52.188;21.024;2022-12-07T00:26:28;77144.31;;;-141.45;100.00
31403;BME280;18039;52.188;21.024;2022-12-07T00:29:01;77136.19;;;-141.45;100.00
31403;BME280;18039;52.188;21.024;2022-12-07T00:31:31;77128.09;;;-141.45;100.00
31403;BME280;18039;52.188;21.024;2022-12-07T00:34:00;77115.94;;;-141.45;100.00
31403;BME280;18039;52.188;21.024;2022-12-07T00:36:27;77111.88;;;-141.45;100.00
31403;BME280;18039;52.188;21.024;2022-12-07T00:38:55;77111.88;;;-141.45;100.00
31403;BME280;18039;52.188;21.024;2022-12-07T00:41:25;77111.88;;;-141.45;100.00
31403;BME280;18039;52.188;21.024;2022-12-07T00:43:53;77119.97;;;-141.45;100.00
31403;BME280;18039;52.188;21.024;2022-12-07T00:46:21;77103.75;;;-141.45;100.00
31403;BME280;18039;52.188;21.024;2022-12-07T00:48:49;77111.88;;;-141.45;100.00
31403;BME280;18039;52.188;21.024;2022-12-07T00:51:18;77103.75;;;-141.45;100.00
31403;BME280;18039;52.188;21.024;2022-12-07T00:53:45;77103.75;;;-141.45;100.00
31403;BME280;18039;52.188;21.024;2022-12-07T00:56:15;77103.75;;;-141.45;100.00
31403;BME280;18039;52.188;21.024;2022-12-07T00:58:43;77095.66;;;-141.45;100.00
31403;BME280;18039;52.188;21.024;2022-12-07T01:01:11;77095.66;;;-141.45;100.00
31403;BME280;18039;52.188;21.024;2022-12-07T01:03:38;77091.59;;;-141.45;100.00
31403;BME280;18039;52.188;21.024;2022-12-07T01:06:05;77083.50;;;-141.45;100.00
31403;BME280;18039;52.188;21.024;2022-12-07T01:08:32;77085.50;;;-141.45;100.00
31403;BME280;18039;52.188;21.024;2022-12-07T01:11:03;77081.47;;;-141.45;100.00
31403;BME280;18039;52.188;21.024;2022-12-07T01:13:31;77077.41;;;-141.45;100.00
31403;BME280;18039;52.188;21.024;2022-12-07T01:16:00;77071.31;;;-141.45;100.00
31403;BME280;18039;52.188;21.024;2022-12-07T01:18:29;77061.19;;;-141.45;100.00
31403;BME280;18039;52.188;21.024;2022-12-07T01:21:01;77067.28;;;-141.45;100.00
31403;BME280;18039;52.188;21.024;2022-12-07T01:23:29;77065.25;;;-141.45;100.00
31403;BME280;18039;52.188;21.024;2022-12-07T01:25:58;77059.16;;;-141.45;100.00
31403;BME280;18039;52.188;21.024;2022-12-07T01:28:25;77055.09;;;-141.45;100.00
31403;BME280;18039;52.188;21.024;2022-12-07T01:31:01;77051.06;;;-141.45;100.00
31403;BME280;18039;52.188;21.024;2022-12-07T01:33:30;77047.00;;;-141.45;100.00
31403;BME280;18039;52.188;21.024;2022-12-07T01:38:33;77036.84;;;-141.45;100.00
31403;BME280;18039;52.188;21.024;2022-12-07T01:41:01;77036.84;;;-141.45;100.00
31403;BME280;18039;52.188;21.024;2022-12-07T01:43:31;77036.84;;;-141.45;100.00
31403;BME280;18039;52.188;21.024;2022-12-07T01:46:01;77034.84;;;-141.45;100.00
31403;BME280;18039;52.188;21.024;2022-12-07T01:48:34;77030.78;;;-141.45;100.00
31403;BME280;18039;52.188;21.024;2022-12-07T01:51:09;77034.84;;;-141.45;100.00
31403;BME280;18039;52.188;21.024;2022-12-07T01:53:40;77034.84;;;-141.45;100.00
31403;BME280;18039;52.188;21.024;2022-12-07T01:56:09;77030.78;;;-141.45;100.00
31403;BME280;18039;52.188;21.024;2022-12-07T01:58:37;77030.78;;;-141.45;100.00
31403;BME280;18039;52.188;21.024;2022-12-07T02:01:04;77026.72;;;-141.45;100.00
31403;BME280;18039;52.188;21.024;2022-12-07T02:03:36;77026.72;;;-141.45;100.00
31403;BME280;18039;52.188;21.024;2022-12-07T02:06:05;77016.59;;;-141.45;100.00
31403;BME280;18039;52.188;21.024;2022-12-07T02:08:33;77018.63;;;-141.45;100.00
31403;BME280;18039;52.188;21.024;2022-12-07T02:11:03;77026.72;;;-141.45;100.00
31403;BME280;18039;52.188;21.024;2022-12-07T02:13:36;77026.72;;;-141.45;100.00
31403;BME280;18039;52.188;21.024;2022-12-07T02:18:52;77016.59;;;-141.45;100.00
31403;BME280;18039;52.188;21.024;2022-12-07T02:30:04;77020.63;;;-141.45;100.00
31403;BME280;18039;52.188;21.024;2022-12-07T02:32:48;77014.56;;;-141.45;100.00
31403;BME280;18039;52.188;21.024;2022-12-07T02:35:34;77014.56;;;-141.45;100.00
31403;BME280;18039;52.188;21.024;2022-12-07T02:38:14;77018.63;;;-141.45;100.00
31403;BME280;18039;52.188;21.024;2022-12-07T02:40:49;77014.56;;;-141.45;100.00
31403;BME280;18039;52.188;21.024;2022-12-07T02:43:20;77010.50;;;-141.45;100.00
31403;BME280;18039;52.188;21.024;2022-12-07T02:45:52;77014.56;;;-141.45;100.00
31403;BME280;18039;52.188;21.024;2022-12-07T02:48:21;77018.63;;;-141.45;100.00
31403;BME280;18039;52.188;21.024;2022-12-07T02:50:51;77014.56;;;-141.45;100.00
31403;BME280;18039;52.188;21.024;2022-12-07T02:53:35;77018.63;;;-141.45;100.00
31403;BME280;18039;52.188;21.024;2022-12-07T02:56:30;77030.78;;;-141.45;100.00
31403;BME280;18039;52.188;21.024;2022-12-07T03:04:45;77022.66;;;-141.45;100.00
31403;BME280;18039;52.188;21.024;2022-12-07T03:07:25;77034.84;;;-141.45;100.00
31403;BME280;18039;52.188;21.024;2022-12-07T03:10:17;77038.88;;;-141.45;100.00
31403;BME280;18039;52.188;21.024;2022-12-07T03:15:50;77047.00;;;-141.45;100.00
31403;BME280;18039;52.188;21.024;2022-12-07T03:18:22;77044.97;;;-141.45;100.00
31403;BME280;18039;52.188;21.024;2022-12-07T03:20:55;77042.94;;;-141.45;100.00
31403;BME280;18039;52.188;21.024;2022-12-07T03:23:23;77042.94;;;-141.45;100.00
31403;BME280;18039;52.188;21.024;2022-12-07T03:26:12;77051.06;;;-141.45;100.00
31403;BME280;18039;52.188;21.024;2022-12-07T03:28:45;77051.06;;;-141.45;100.00
31403;BME280;18039;52.188;21.024;2022-12-07T03:31:18;77057.13;;;-141.45;100.00
31403;BME280;18039;52.188;21.024;2022-12-07T03:33:49;77063.22;;;-141.45;100.00
31403;BME280;18039;52.188;21.024;2022-12-07T03:36:21;77071.31;;;-141.45;100.00
31403;BME280;18039;52.188;21.024;2022-12-07T03:38:56;77071.31;;;-141.45;100.00
31403;BME280;18039;52.188;21.024;2022-12-07T03:41:27;77075.38;;;-141.45;100.00
31403;BME280;18039;52.188;21.024;2022-12-07T03:43:56;77071.31;;;-141.45;100.00
31403;BME280;18039;52.188;21.024;2022-12-07T03:52:18;77075.38;;;-141.45;100.00
31403;BME280;18039;52.188;21.024;2022-12-07T03:57:34;77073.34;;;-141.45;100.00
31403;BME280;18039;52.188;21.024;2022-12-07T04:00:04;77075.38;;;-141.45;100.00
31403;BME280;18039;52.188;21.024;2022-12-07T04:02:38;77079.44;;;-141.45;100.00
31403;BME280;18039;52.188;21.024;2022-12-07T04:05:06;77083.50;;;-141.45;100.00
31403;BME280;18039;52.188;21.024;2022-12-07T04:07:33;77081.47;;;-141.45;100.00
31403;BME280;18039;52.188;21.024;2022-12-07T04:10:00;77079.44;;;-141.45;100.00
31403;BME280;18039;52.188;21.024;2022-12-07T04:12:28;77079.44;;;-141.45;100.00
31403;BME280;18039;52.188;21.024;2022-12-07T04:14:55;77079.44;;;-141.45;100.00
31403;BME280;18039;52.188;21.024;2022-12-07T04:17:22;77079.44;;;-141.45;100.00
31403;BME280;18039;52.188;21.024;2022-12-07T04:19:49;77079.44;;;-141.45;100.00
31403;BME280;18039;52.188;21.024;2022-12-07T04:22:16;77083.50;;;-141.45;100.00
31403;BME280;18039;52.188;21.024;2022-12-07T04:24:43;77079.44;;;-141.45;100.00
31403;BME280;18039;52.188;21.024;2022-12-07T04:27:10;77081.47;;;-141.45;100.00
31403;BME280;18039;52.188;21.024;2022-12-07T04:29:37;77075.38;;;-141.45;100.00
31403;BME280;18039;52.188;21.024;2022-12-07T04:32:04;77071.31;;;-141.45;100.00
31403;BME280;18039;52.188;21.024;2022-12-07T04:34:31;77071.31;;;-141.45;100.00
31403;BME280;18039;52.188;21.024;2022-12-07T04:36:58;77067.28;;;-141.45;100.00
31403;BME280;18039;52.188;21.024;2022-12-07T04:39:29;77069.28;;;-141.45;100.00
31403;BME280;18039;52.188;21.024;2022-12-07T04:41:57;77075.38;;;-141.45;100.00
31403;BME280;18039;52.188;21.024;2022-12-07T04:44:26;77081.47;;;-141.45;100.00
31403;BME280;18039;52.188;21.024;2022-12-07T04:46:54;77071.31;;;-141.45;100.00
31403;BME280;18039;52.188;21.024;2022-12-07T04:49:22;77071.31;;;-141.45;100.00
31403;BME280;18039;52.188;21.024;2022-12-07T04:51:49;77081.47;;;-141.45;100.00
31403;BME280;18039;52.188;21.024;2022-12-07T04:54:17;77079.44;;;-141.45;100.00
31403;BME280;18039;52.188;21.024;2022-12-07T04:56:44;77091.59;;;-141.45;100.00
31403;BME280;18039;52.188;21.024;2022-12-07T04:59:12;77087.53;;;-141.45;100.00
31403;BME280;18039;52.188;21.024;2022-12-07T05:01:40;77091.59;;;-141.45;100.00
31403;BME280;18039;52.188;21.024;2022-12-07T05:04:07;77083.50;;;-141.45;100.00
31403;BME280;18039;52.188;21.024;2022-12-07T05:06:34;77083.50;;;-141.45;100.00
31403;BME280;18039;52.188;21.024;2022-12-07T05:09:03;77087.53;;;-141.45;100.00
31403;BME280;18039;52.188;21.024;2022-12-07T05:11:30;77083.50;;;-141.45;100.00
31403;BME280;18039;52.188;21.024;2022-12-07T05:14:11;77083.50;;;-141.45;100.00
31403;BME280;18039;52.188;21.024;2022-12-07T05:16:39;77083.50;;;-141.45;100.00
31403;BME280;18039;52.188;21.024;2022-12-07T05:19:07;77079.44;;;-141.45;100.00
31403;BME280;18039;52.188;21.024;2022-12-07T05:21:35;77079.44;;;-141.45;100.00
31403;BME280;18039;52.188;21.024;2022-12-07T05:24:03;77087.53;;;-141.45;100.00
31403;BME280;18039;52.188;21.024;2022-12-07T05:26:30;77091.59;;;-141.45;100.00
31403;BME280;18039;52.188;21.024;2022-12-07T05:28:57;77091.59;;;-141.45;100.00
31403;BME280;18039;52.188;21.024;2022-12-07T05:31:25;77111.88;;;-141.45;100.00
31403;BME280;18039;52.188;21.024;2022-12-07T05:33:53;77091.59;;;-141.45;100.00
31403;BME280;18039;52.188;21.024;2022-12-07T05:36:20;77099.72;;;-141.45;100.00
31403;BME280;18039;52.188;21.024;2022-12-07T05:38:47;77099.72;;;-141.45;100.00
31403;BME280;18039;52.188;21.024;2022-12-07T05:41:17;77099.72;;;-141.45;100.00
31403;BME280;18039;52.188;21.024;2022-12-07T05:44:03;77107.81;;;-141.45;100.00
31403;BME280;18039;52.188;21.024;2022-12-07T05:46:31;77111.88;;;-141.45;100.00
31403;BME280;18039;52.188;21.024;2022-12-07T05:48:58;77119.97;;;-141.45;100.00
31403;BME280;18039;52.188;21.024;2022-12-07T05:51:25;77115.94;;;-141.45;100.00
31403;BME280;18039;52.188;21.024;2022-12-07T05:53:53;77119.97;;;-141.45;100.00
31403;BME280;18039;52.188;21.024;2022-12-07T05:56:20;77111.88;;;-141.45;100.00
31403;BME280;18039;52.188;21.024;2022-12-07T05:58:47;77107.81;;;-141.45;100.00
31403;BME280;18039;52.188;21.024;2022-12-07T06:01:33;77115.94;;;-141.45;100.00
31403;BME280;18039;52.188;21.024;2022-12-07T06:04:00;77115.94;;;-141.45;100.00
31403;BME280;18039;52.188;21.024;2022-12-07T06:06:27;77111.88;;;-141.45;100.00
31403;BME280;18039;52.188;21.024;2022-12-07T06:08:54;77115.94;;;-141.45;100.00
31403;BME280;18039;52.188;21.024;2022-12-07T06:11:21;77117.94;;;-141.45;100.00
31403;BME280;18039;52.188;21.024;2022-12-07T06:14:06;77124.03;;;-141.45;100.00
31403;BME280;18039;52.188;21.024;2022-12-07T06:16:33;77136.19;;;-141.45;100.00
31403;BME280;18039;52.188;21.024;2022-12-07T06:19:00;77136.19;;;-141.45;100.00
31403;BME280;18039;52.188;21.024;2022-12-07T06:21:27;77136.19;;;-141.45;100.00
31403;BME280;18039;52.188;21.024;2022-12-07T06:23:55;77136.19;;;-141.45;100.00
31403;BME280;18039;52.188;21.024;2022-12-07T06:26:22;77128.09;;;-141.45;100.00
31403;BME280;18039;52.188;21.024;2022-12-07T06:28:49;77124.03;;;-141.45;100.00
31403;BME280;18039;52.188;21.024;2022-12-07T06:31:16;77124.03;;;-141.45;100.00
31403;BME280;18039;52.188;21.024;2022-12-07T06:33:43;77132.16;;;-141.45;100.00
31403;BME280;18039;52.188;21.024;2022-12-07T06:36:10;77136.19;;;-141.45;100.00
31403;BME280;18039;52.188;21.024;2022-12-07T06:38:38;77128.09;;;-141.45;100.00
31403;BME280;18039;52.188;21.024;2022-12-07T06:41:06;77130.13;;;-141.45;100.00
31403;BME280;18039;52.188;21.024;2022-12-07T06:43:33;77119.97;;;-141.45;100.00
31403;BME280;18039;52.188;21.024;2022-12-07T06:46:00;77132.16;;;-141.45;100.00
31403;BME280;18039;52.188;21.024;2022-12-07T06:48:27;77128.09;;;-141.45;100.00
31403;BME280;18039;52.188;21.024;2022-12-07T06:50:54;77130.13;;;-141.45;100.00
31403;BME280;18039;52.188;21.024;2022-12-07T06:53:22;77124.03;;;-141.45;100.00
31403;BME280;18039;52.188;21.024;2022-12-07T06:55:49;77128.09;;;-141.45;100.00
31403;BME280;18039;52.188;21.024;2022-12-07T06:58:17;77134.16;;;-141.45;100.00
31403;BME280;18039;52.188;21.024;2022-12-07T07:00:44;77132.16;;;-141.45;100.00
31403;BME280;18039;52.188;21.024;2022-12-07T07:03:12;77132.16;;;-141.45;100.00
31403;BME280;18039;52.188;21.024;2022-12-07T07:05:39;77134.16;;;-141.45;100.00
31403;BME280;18039;52.188;21.024;2022-12-07T07:08:06;77128.09;;;-141.45;100.00
31403;BME280;18039;52.188;21.024;2022-12-07T07:10:49;77128.09;;;-141.45;100.00
31403;BME280;18039;52.188;21.024;2022-12-07T07:13:17;77132.16;;;-141.45;100.00
31403;BME280;18039;52.188;21.024;2022-12-07T07:15:44;77128.09;;;-141.45;100.00
31403;BME280;18039;52.188;21.024;2022-12-07T07:18:11;77128.09;;;-141.45;100.00
31403;BME280;18039;52.188;21.024;2022-12-07T07:20:39;77128.09;;;-141.45;100.00
31403;BME280;18039;52.188;21.024;2022-12-07T07:23:06;77119.97;;;-141.45;100.00
31403;BME280;18039;52.188;21.024;2022-12-07T07:25:34;77115.94;;;-141.45;100.00
31403;BME280;18039;52.188;21.024;2022-12-07T07:28:02;77111.88;;;-141.45;100.00
31403;BME280;18039;52.188;21.024;2022-12-07T07:30:29;77119.97;;;-141.45;100.00
31403;BME280;18039;52.188;21.024;2022-12-07T07:32:57;77115.94;;;-141.45;100.00
31403;BME280;18039;52.188;21.024;2022-12-07T07:35:26;77111.88;;;-141.45;100.00
31403;BME280;18039;52.188;21.024;2022-12-07T07:37:53;77113.91;;;-141.45;100.00
31403;BME280;18039;52.188;21.024;2022-12-07T07:40:21;77107.81;;;-141.45;100.00
31403;BME280;18039;52.188;21.024;2022-12-07T07:42:52;77103.75;;;-141.45;100.00
31403;BME280;18039;52.188;21.024;2022-12-07T07:45:20;77099.72;;;-141.45;100.00
31403;BME280;18039;52.188;21.024;2022-12-07T07:47:48;77101.72;;;-141.45;100.00
31403;BME280;18039;52.188;21.024;2022-12-07T07:50:16;77107.81;;;-141.45;100.00
31403;BME280;18039;52.188;21.024;2022-12-07T07:52:44;77103.75;;;-141.45;100.00
31403;BME280;18039;52.188;21.024;2022-12-07T07:55:11;77103.75;;;-141.45;100.00
31403;BME280;18039;52.188;21.024;2022-12-07T07:57:40;77103.75;;;-141.45;100.00
31403;BME280;18039;52.188;21.024;2022-12-07T08:00:11;77099.72;;;-141.45;100.00
31403;BME280;18039;52.188;21.024;2022-12-07T08:02:41;77095.66;;;-141.45;100.00
31403;BME280;18039;52.188;21.024;2022-12-07T08:05:13;77095.66;;;-141.45;100.00
31403;BME280;18039;52.188;21.024;2022-12-07T08:07:41;77091.59;;;-141.45;100.00
31403;BME280;18039;52.188;21.024;2022-12-07T08:10:10;77095.66;;;-141.45;100.00
31403;BME280;18039;52.188;21.024;2022-12-07T08:12:40;77091.59;;;-141.45;100.00
31403;BME280;18039;52.188;21.024;2022-12-07T08:15:30;77097.69;;;-141.45;100.00
31403;BME280;18039;52.188;21.024;2022-12-07T08:17:58;77103.75;;;-141.45;100.00
31403;BME280;18039;52.188;21.024;2022-12-07T08:20:25;77099.72;;;-141.45;100.00
31403;BME280;18039;52.188;21.024;2022-12-07T08:22:53;77095.66;;;-141.45;100.00
31403;BME280;18039;52.188;21.024;2022-12-07T08:25:21;77095.66;;;-141.45;100.00
31403;BME280;18039;52.188;21.024;2022-12-07T08:27:50;77091.59;;;-141.45;100.00
31403;BME280;18039;52.188;21.024;2022-12-07T08:30:17;77087.53;;;-141.45;100.00
31403;BME280;18039;52.188;21.024;2022-12-07T08:32:45;77083.50;;;-141.45;100.00
31403;BME280;18039;52.188;21.024;2022-12-07T08:35:13;77083.50;;;-141.45;100.00
31403;BME280;18039;52.188;21.024;2022-12-07T08:37:41;77075.38;;;-141.45;100.00
31403;BME280;18039;52.188;21.024;2022-12-07T08:40:10;77067.28;;;-141.45;100.00
31403;BME280;18039;52.188;21.024;2022-12-07T08:42:38;77075.38;;;-141.45;100.00
31403;BME280;18039;52.188;21.024;2022-12-07T08:45:12;77071.31;;;-141.45;100.00
31403;BME280;18039;52.188;21.024;2022-12-07T08:48:06;77067.28;;;-141.45;100.00
31403;BME280;18039;52.188;21.024;2022-12-07T08:50:36;77063.22;;;-141.45;100.00
31403;BME280;18039;52.188;21.024;2022-12-07T08:53:05;77047.00;;;-141.45;100.00
31403;BME280;18039;52.188;21.024;2022-12-07T08:55:33;77042.94;;;-141.45;100.00
31403;BME280;18039;52.188;21.024;2022-12-07T08:58:02;77030.78;;;-141.45;100.00
31403;BME280;18039;52.188;21.024;2022-12-07T09:00:29;77030.78;;;-141.45;100.00
31403;BME280;18039;52.188;21.024;2022-12-07T09:02:56;77022.66;;;-141.45;100.00
31403;BME280;18039;52.188;21.024;2022-12-07T09:05:23;77018.63;;;-141.45;100.00
31403;BME280;18039;52.188;21.024;2022-12-07T09:07:56;77010.50;;;-141.45;100.00
31403;BME280;18039;52.188;21.024;2022-12-07T09:10:24;77002.41;;;-141.45;100.00
31403;BME280;18039;52.188;21.024;2022-12-07T09:12:52;76996.31;;;-141.45;100.00
31403;BME280;18039;52.188;21.024;2022-12-07T09:15:20;76994.28;;;-141.45;100.00
31403;BME280;18039;52.188;21.024;2022-12-07T09:17:47;76982.13;;;-141.45;100.00
31403;BME280;18039;52.188;21.024;2022-12-07T09:20:14;76969.94;;;-141.45;100.00
31403;BME280;18039;52.188;21.024;2022-12-07T09:22:41;76957.78;;;-141.45;100.00
31403;BME280;18039;52.188;21.024;2022-12-07T09:25:08;76965.91;;;-141.45;100.00
31403;BME280;18039;52.188;21.024;2022-12-07T09:27:35;76965.91;;;-141.45;100.00
31403;BME280;18039;52.188;21.024;2022-12-07T09:30:03;76957.78;;;-141.45;100.00
31403;BME280;18039;52.188;21.024;2022-12-07T09:32:32;76949.69;;;-141.45;100.00
31403;BME280;18039;52.188;21.024;2022-12-07T09:34:59;76945.63;;;-141.45;100.00
31403;BME280;18039;52.188;21.024;2022-12-07T09:37:26;76947.66;;;-141.45;100.00
31403;BME280;18039;52.188;21.024;2022-12-07T09:39:53;76937.53;;;-141.45;100.00
31403;BME280;18039;52.188;21.024;2022-12-07T09:42:27;76929.41;;;-141.45;100.00
31403;BME280;18039;52.188;21.024;2022-12-07T09:44:55;76929.41;;;-141.45;100.00
31403;BME280;18039;52.188;21.024;2022-12-07T09:47:23;76929.41;;;-141.45;100.00
31403;BME280;18039;52.188;21.024;2022-12-07T09:49:50;76925.34;;;-141.45;100.00
31403;BME280;18039;52.188;21.024;2022-12-07T09:54:48;76945.63;;;-141.45;100.00
31403;BME280;18039;52.188;21.024;2022-12-07T09:57:17;76929.41;;;-141.45;100.00
31403;BME280;18039;52.188;21.024;2022-12-07T09:59:46;76921.31;;;-141.45;100.00
31403;BME280;18039;52.188;21.024;2022-12-07T10:02:25;76921.31;;;-141.45;100.00
31403;BME280;18039;52.188;21.024;2022-12-07T10:04:53;76923.31;;;-141.45;100.00
31403;BME280;18039;52.188;21.024;2022-12-07T10:07:20;76921.31;;;-141.45;100.00
31403;BME280;18039;52.188;21.024;2022-12-07T10:09:48;76937.53;;;-141.45;100.00
31403;BME280;18039;52.188;21.024;2022-12-07T10:12:15;76923.31;;;-141.45;100.00
31403;BME280;18039;52.188;21.024;2022-12-07T10:15:12;76933.47;;;-141.45;100.00
31403;BME280;18039;52.188;21.024;2022-12-07T10:17:47;76913.19;;;-141.45;100.00
31403;BME280;18039;52.188;21.024;2022-12-07T10:20:19;76909.13;;;-141.45;100.00
31403;BME280;18039;52.188;21.024;2022-12-07T10:23:07;76913.19;;;-141.45;100.00
31403;BME280;18039;52.188;21.024;2022-12-07T10:25:40;76921.31;;;-141.45;100.00
31403;BME280;18039;52.188;21.024;2022-12-07T10:28:17;76925.34;;;-141.45;100.00
31403;BME280;18039;52.188;21.024;2022-12-07T10:31:02;76901.03;;;-141.45;100.00
31403;BME280;18039;52.188;21.024;2022-12-07T10:33:48;76913.19;;;-141.45;100.00
31403;BME280;18039;52.188;21.024;2022-12-07T10:36:33;76921.31;;;-141.45;100.00
31403;BME280;18039;52.188;21.024;2022-12-07T10:39:13;76921.31;;;-141.45;100.00
31403;BME280;18039;52.188;21.024;2022-12-07T10:42:00;76913.19;;;-141.45;100.00
31403;BME280;18039;52.188;21.024;2022-12-07T10:44:29;76915.22;;;-141.45;100.00
31403;BME280;18039;52.188;21.024;2022-12-07T10:47:12;76913.19;;;-141.45;100.00
31403;BME280;18039;52.188;21.024;2022-12-07T10:52:18;76909.13;;;-141.45;100.00
31403;BME280;18039;52.188;21.024;2022-12-07T11:00:56;76905.09;;;-141.45;100.00
31403;BME280;18039;52.188;21.024;2022-12-07T11:15:23;76892.91;;;-141.45;100.00
31403;BME280;18039;52.188;21.024;2022-12-07T11:20:39;76901.03;;;-141.45;100.00
31403;BME280;18039;52.188;21.024;2022-12-07T11:31:38;76892.91;;;-141.45;100.00
31403;BME280;18039;52.188;21.024;2022-12-07T11:34:39;76884.81;;;-141.45;100.00
31403;BME280;18039;52.188;21.024;2022-12-07T11:37:13;76896.97;;;-141.45;100.00
31403;BME280;18039;52.188;21.024;2022-12-07T11:39:49;76892.91;;;-141.45;100.00
31403;BME280;18039;52.188;21.024;2022-12-07T11:42:30;76880.75;;;-141.45;100.00
31403;BME280;18039;52.188;21.024;2022-12-07T11:45:16;76872.66;;;-141.45;100.00
31403;BME280;18039;52.188;21.024;2022-12-07T11:47:59;76860.47;;;-141.45;100.00
31403;BME280;18039;52.188;21.024;2022-12-07T11:50:38;76866.56;;;-141.45;100.00
31403;BME280;18039;52.188;21.024;2022-12-07T11:56:19;76848.31;;;-141.45;100.00
31403;BME280;18039;52.188;21.024;2022-12-07T12:03:47;76860.47;;;-141.45;100.00
31403;BME280;18039;52.188;21.024;2022-12-07T12:06:20;76856.44;;;-141.45;100.00
31403;BME280;18039;52.188;21.024;2022-12-07T12:20:30;76876.69;;;-141.45;100.00
31403;BME280;18039;52.188;21.024;2022-12-07T12:23:05;76882.78;;;-141.45;100.00
31403;BME280;18039;52.188;21.024;2022-12-07T12:25:41;76892.91;;;-141.45;100.00
31403;BME280;18039;52.188;21.024;2022-12-07T12:34:02;76884.81;;;-141.45;100.00
31403;BME280;18039;52.188;21.024;2022-12-07T12:39:12;76882.78;;;-141.45;100.00
31403;BME280;18039;52.188;21.024;2022-12-07T12:46:58;76880.75;;;-141.45;100.00
31403;BME280;18039;52.188;21.024;2022-12-07T12:51:59;76880.75;;;-141.45;100.00
31403;BME280;18039;52.188;21.024;2022-12-07T12:54:29;76884.81;;;-141.45;100.00
31403;BME280;18039;52.188;21.024;2022-12-07T13:02:32;76882.78;;;-141.45;100.00
31403;BME280;18039;52.188;21.024;2022-12-07T13:29:19;76872.66;;;-141.45;100.00
31403;BME280;18039;52.188;21.024;2022-12-07T13:31:49;76872.66;;;-141.45;100.00
31403;BME280;18039;52.188;21.024;2022-12-07T13:34:35;76872.66;;;-141.45;100.00
31403;BME280;18039;52.188;21.024;2022-12-07T13:39:47;76884.81;;;-141.45;100.00
31403;BME280;18039;52.188;21.024;2022-12-07T13:44:47;76901.03;;;-141.45;100.00
31403;BME280;18039;52.188;21.024;2022-12-07T13:49:53;76909.13;;;-141.45;100.00
31403;BME280;18039;52.188;21.024;2022-12-07T13:57:35;76921.31;;;-141.45;100.00
31403;BME280;18039;52.188;21.024;2022-12-07T14:00:06;76915.22;;;-141.45;100.00
31403;BME280;18039;52.188;21.024;2022-12-07T14:02:58;76919.28;;;-141.45;100.00
31403;BME280;18039;52.188;21.024;2022-12-07T14:05:29;76917.25;;;-141.45;100.00
31403;BME280;18039;52.188;21.024;2022-12-07T14:07:58;76941.56;;;-141.45;100.00
31403;BME280;18039;52.188;21.024;2022-12-07T14:13:01;76907.09;;;-141.45;100.00
31403;BME280;18039;52.188;21.024;2022-12-07T14:15:34;76917.25;;;-141.45;100.00
31403;BME280;18039;52.188;21.024;2022-12-07T14:18:02;76913.19;;;-141.45;100.00
31403;BME280;18039;52.188;21.024;2022-12-07T14:20:40;76925.34;;;-141.45;100.00
31403;BME280;18039;52.188;21.024;2022-12-07T14:23:24;76933.47;;;-141.45;100.00
31403;BME280;18039;52.188;21.024;2022-12-07T14:25:53;76953.75;;;-141.45;100.00
31403;BME280;18039;52.188;21.024;2022-12-07T14:28:29;76949.69;;;-141.45;100.00
31403;BME280;18039;52.188;21.024;2022-12-07T14:30:58;76955.75;;;-141.45;100.00
31403;BME280;18039;52.188;21.024;2022-12-07T14:33:26;76959.81;;;-141.45;100.00
31403;BME280;18039;52.188;21.024;2022-12-07T14:35:55;76965.91;;;-141.45;100.00
31403;BME280;18039;52.188;21.024;2022-12-07T14:38:25;76961.84;;;-141.45;100.00
31403;BME280;18039;52.188;21.024;2022-12-07T14:40:53;76967.94;;;-141.45;100.00
31403;BME280;18039;52.188;21.024;2022-12-07T14:43:41;76965.91;;;-141.45;100.00
31403;BME280;18039;52.188;21.024;2022-12-07T14:46:28;76969.94;;;-141.45;100.00
31403;BME280;18039;52.188;21.024;2022-12-07T14:48:56;76971.97;;;-141.45;100.00
31403;BME280;18039;52.188;21.024;2022-12-07T14:51:45;76988.19;;;-141.45;100.00
31403;BME280;18039;52.188;21.024;2022-12-07T14:54:33;76996.31;;;-141.45;100.00
31403;BME280;18039;52.188;21.024;2022-12-07T14:57:00;77006.44;;;-141.45;100.00
31403;BME280;18039;52.188;21.024;2022-12-07T14:59:27;77006.44;;;-141.45;100.00
31403;BME280;18039;52.188;21.024;2022-12-07T15:01:54;77014.56;;;-141.45;100.00
31403;BME280;18039;52.188;21.024;2022-12-07T15:04:21;77010.50;;;-141.45;100.00
31403;BME280;18039;52.188;21.024;2022-12-07T15:06:56;77010.50;;;-141.45;100.00